Time;durP1;ratioP1;P1;durP2;ratioP2;P2;SDS_P1;SDS_P2;PMS_P1;PMS_P2;Temp;Humidity;BMP_temperature;BMP_pressure;BME280_temperature;BME280_humidity;BME280_pressure;Samples;Min_cycle;Max_cycle;Signal;HPM_P1;HPM_P2
2022/10/08 00:04:09;;;;;;;6.25;2.38;;;;;;;;;;10410398;28;20033;-49
2022/10/08 00:09:10;;;;;;;4.10;2.22;;;;;;;;;;10410383;28;20489;-46
2022/10/08 00:14:10;;;;;;;7.75;2.15;;;;;;;;;;10410149;28;20053;-46
2022/10/08 00:19:12;;;;;;;2.80;1.95;;;;;;;;;;10410273;28;20056;-46
2022/10/08 00:24:14;;;;;;;3.88;2.40;;;;;;;;;;10410531;28;20099;-47
2022/10/08 00:29:16;;;;;;;5.10;2.10;;;;;;;;;;10409516;28;20033;-46
2022/10/08 00:34:18;;;;;;;5.85;2.53;;;;;;;;;;10409691;28;20030;-46
2022/10/08 00:39:20;;;;;;;6.78;2.25;;;;;;;;;;10409087;28;20435;-46
2022/10/08 00:44:39;;;;;;;5.28;1.90;;;;;;;;;;10409915;28;20102;-49
2022/10/08 00:49:40;;;;;;;5.03;2.10;;;;;;;;;;10409087;28;20037;-51
2022/10/08 00:54:40;;;;;;;6.95;2.15;;;;;;;;;;10409111;28;20492;-48
2022/10/08 00:59:40;;;;;;;4.10;1.98;;;;;;;;;;10409030;28;20396;-47
2022/10/08 01:04:41;;;;;;;5.07;1.88;;;;;;;;;;10409244;28;20393;-50
2022/10/08 01:09:50;;;;;;;7.40;2.67;;;;;;;;;;10408661;28;20056;-52
2022/10/08 01:14:50;;;;;;;3.72;1.88;;;;;;;;;;10408598;28;20081;-46
2022/10/08 01:19:53;;;;;;;4.10;1.98;;;;;;;;;;10408531;28;20045;-47
2022/10/08 01:30:17;;;;;;;2.75;1.60;;;;;;;;;;10408522;28;20037;-50
2022/10/08 01:35:22;;;;;;;4.78;1.75;;;;;;;;;;10408608;28;20029;-49
2022/10/08 01:40:26;;;;;;;5.03;1.98;;;;;;;;;;10408791;28;20030;-49
2022/10/08 01:45:32;;;;;;;2.45;1.80;;;;;;;;;;10408383;28;20030;-48
2022/10/08 01:50:37;;;;;;;3.78;1.90;;;;;;;;;;10407976;28;20491;-51
2022/10/08 01:55:40;;;;;;;6.75;2.20;;;;;;;;;;10408397;28;20112;-48
2022/10/08 02:00:41;;;;;;;2.35;1.75;;;;;;;;;;10407897;28;20030;-48
2022/10/08 02:05:44;;;;;;;4.80;1.88;;;;;;;;;;10408081;28;20029;-47
2022/10/08 02:10:45;;;;;;;5.93;2.22;;;;;;;;;;10407721;28;20042;-51
2022/10/08 02:15:58;;;;;;;4.10;1.50;;;;;;;;;;10409433;28;20056;-50
2022/10/08 02:21:00;;;;;;;4.95;1.70;;;;;;;;;;10415065;28;20555;-50
2022/10/08 02:26:02;;;;;;;2.97;1.80;;;;;;;;;;10415276;28;20079;-51
2022/10/08 02:31:06;;;;;;;2.10;1.70;;;;;;;;;;10414472;28;20152;-51
2022/10/08 02:36:08;;;;;;;2.78;1.65;;;;;;;;;;10413770;28;20041;-49
2022/10/08 02:41:10;;;;;;;4.50;1.63;;;;;;;;;;10414001;28;20048;-50
2022/10/08 02:46:16;;;;;;;5.22;1.67;;;;;;;;;;10413854;28;20029;-49
2022/10/08 02:51:17;;;;;;;5.30;1.92;;;;;;;;;;10413603;28;20620;-48
2022/10/08 02:56:23;;;;;;;2.40;1.50;;;;;;;;;;10413248;28;20385;-50
2022/10/08 03:01:44;;;;;;;1.67;1.45;;;;;;;;;;10414091;28;20029;-48
2022/10/08 03:06:45;;;;;;;5.40;1.70;;;;;;;;;;10413945;28;20034;-49
2022/10/08 03:11:46;;;;;;;3.88;1.80;;;;;;;;;;10412636;28;20095;-48
2022/10/08 03:16:46;;;;;;;2.45;1.70;;;;;;;;;;10413451;28;20040;-48
2022/10/08 03:21:48;;;;;;;3.72;2.15;;;;;;;;;;10412408;28;20397;-47
2022/10/08 03:26:48;;;;;;;2.75;1.70;;;;;;;;;;10411376;28;20392;-47
2022/10/08 03:31:49;;;;;;;2.88;1.90;;;;;;;;;;10412760;28;20037;-47
2022/10/08 03:36:49;;;;;;;4.35;1.75;;;;;;;;;;10411821;28;20025;-48
2022/10/08 03:41:50;;;;;;;2.80;1.63;;;;;;;;;;10412328;28;20025;-46
2022/10/08 03:46:50;;;;;;;4.27;1.63;;;;;;;;;;10411673;28;20025;-47
2022/10/08 03:51:50;;;;;;;5.07;1.73;;;;;;;;;;10411357;28;20400;-50
2022/10/08 03:56:50;;;;;;;2.75;1.40;;;;;;;;;;10411324;28;20029;-48
2022/10/08 04:01:51;;;;;;;2.83;1.60;;;;;;;;;;10411480;28;20056;-48
2022/10/08 04:06:51;;;;;;;1.60;1.30;;;;;;;;;;10410759;28;20021;-46
2022/10/08 04:11:51;;;;;;;7.17;2.30;;;;;;;;;;10410204;28;20029;-47
2022/10/08 04:16:52;;;;;;;5.00;1.60;;;;;;;;;;10410593;28;20443;-48
2022/10/08 04:21:53;;;;;;;3.53;1.40;;;;;;;;;;10410684;28;20064;-47
2022/10/08 04:26:53;;;;;;;2.60;1.75;;;;;;;;;;10410014;28;20425;-51
2022/10/08 04:31:53;;;;;;;2.40;1.60;;;;;;;;;;10409551;28;20163;-47
2022/10/08 04:36:53;;;;;;;1.73;1.52;;;;;;;;;;10409708;28;20397;-49
2022/10/08 04:41:54;;;;;;;6.07;1.58;;;;;;;;;;10409219;28;20056;-48
2022/10/08 04:46:54;;;;;;;3.03;1.50;;;;;;;;;;10409388;28;20039;-47
2022/10/08 04:51:54;;;;;;;5.88;1.83;;;;;;;;;;10409709;28;20033;-48
2022/10/08 04:56:55;;;;;;;4.10;1.35;;;;;;;;;;10409100;28;20040;-47
2022/10/08 05:01:58;;;;;;;1.63;1.13;;;;;;;;;;10408800;28;20021;-49
2022/10/08 05:06:58;;;;;;;4.75;1.60;;;;;;;;;;10408887;28;20045;-51
2022/10/08 05:11:58;;;;;;;4.30;1.63;;;;;;;;;;10408259;28;20506;-48
2022/10/08 05:16:58;;;;;;;2.38;1.60;;;;;;;;;;10408698;28;20028;-47
2022/10/08 05:21:59;;;;;;;3.15;1.55;;;;;;;;;;10408877;28;20033;-47
2022/10/08 05:26:59;;;;;;;2.65;1.52;;;;;;;;;;10408339;28;20028;-46
2022/10/08 05:31:59;;;;;;;4.57;1.30;;;;;;;;;;10409621;28;20026;-50
2022/10/08 05:36:59;;;;;;;1.65;1.35;;;;;;;;;;10408555;28;20429;-49
2022/10/08 05:42:00;;;;;;;1.02;0.95;;;;;;;;;;10408411;28;20033;-46
2022/10/08 05:47:00;;;;;;;3.05;1.48;;;;;;;;;;10408907;28;20033;-47
2022/10/08 05:52:01;;;;;;;2.03;1.33;;;;;;;;;;10412758;28;20095;-47
2022/10/08 05:57:01;;;;;;;3.45;1.42;;;;;;;;;;10416733;28;20530;-46
2022/10/08 06:02:01;;;;;;;2.47;1.37;;;;;;;;;;10416298;28;20539;-47
2022/10/08 06:07:01;;;;;;;6.82;1.42;;;;;;;;;;10415367;28;20397;-46
2022/10/08 06:12:02;;;;;;;3.22;1.30;;;;;;;;;;10415212;28;20033;-46
2022/10/08 06:17:02;;;;;;;2.40;1.58;;;;;;;;;;10415921;28;20112;-46
2022/10/08 06:22:03;;;;;;;13.27;1.58;;;;;;;;;;10414253;28;20116;-47
2022/10/08 06:27:04;;;;;;;3.30;1.45;;;;;;;;;;10414920;28;20029;-48
2022/10/08 06:32:04;;;;;;;2.47;1.17;;;;;;;;;;10414351;28;20034;-49
2022/10/08 06:37:04;;;;;;;1.30;1.20;;;;;;;;;;10413894;28;20037;-46
2022/10/08 06:42:05;;;;;;;9.02;2.35;;;;;;;;;;10413315;28;20116;-48
2022/10/08 06:47:05;;;;;;;11.20;1.83;;;;;;;;;;10412750;28;20095;-48
2022/10/08 06:52:05;;;;;;;18.27;3.92;;;;;;;;;;10413322;28;20076;-48
2022/10/08 06:57:06;;;;;;;15.20;6.95;;;;;;;;;;10413334;28;20025;-50
2022/10/08 07:02:07;;;;;;;16.45;7.55;;;;;;;;;;10412756;28;20068;-49
2022/10/08 07:07:07;;;;;;;14.45;6.63;;;;;;;;;;10413479;28;20514;-48
2022/10/08 07:12:08;;;;;;;14.40;6.90;;;;;;;;;;10412403;28;20049;-46
2022/10/08 07:17:08;;;;;;;15.98;6.50;;;;;;;;;;10413635;28;20065;-47
2022/10/08 07:22:08;;;;;;;9.57;5.50;;;;;;;;;;10413119;28;20554;-49
2022/10/08 07:27:08;;;;;;;8.82;4.35;;;;;;;;;;10411933;28;20065;-45
2022/10/08 07:32:09;;;;;;;9.15;3.72;;;;;;;;;;10408049;28;20025;-52
2022/10/08 07:37:09;;;;;;;11.48;4.32;;;;;;;;;;10408350;28;20108;-54
2022/10/08 07:42:09;;;;;;;9.80;4.32;;;;;;;;;;10411702;28;20045;-47
2022/10/08 07:47:10;;;;;;;9.88;4.25;;;;;;;;;;10408383;28;20040;-49
2022/10/08 07:52:10;;;;;;;9.30;4.37;;;;;;;;;;10410787;28;20068;-50
2022/10/08 07:57:10;;;;;;;11.35;4.57;;;;;;;;;;10410958;28;20453;-49
2022/10/08 08:02:10;;;;;;;7.00;3.75;;;;;;;;;;10410803;28;20029;-47
2022/10/08 08:07:11;;;;;;;10.07;3.70;;;;;;;;;;10410458;28;20120;-47
2022/10/08 08:12:11;;;;;;;7.45;3.85;;;;;;;;;;10409669;28;20045;-46
2022/10/08 08:17:11;;;;;;;10.10;3.58;;;;;;;;;;10410585;28;20021;-44
2022/10/08 08:22:12;;;;;;;12.45;4.10;;;;;;;;;;10410092;28;20423;-46
2022/10/08 08:27:12;;;;;;;13.45;4.18;;;;;;;;;;10408955;28;20037;-44
2022/10/08 08:32:14;;;;;;;9.00;3.78;;;;;;;;;;10408882;28;20025;-44
2022/10/08 08:37:14;;;;;;;8.63;3.58;;;;;;;;;;10409396;28;20291;-44
2022/10/08 08:42:32;;;;;;;15.32;3.42;;;;;;;;;;10410141;28;20279;-44
2022/10/08 08:47:33;;;;;;;;;;;;;;;;;;10409778;28;20029;-43
2022/10/08 08:52:37;;;;;;;8.88;4.05;;;;;;;;;;10407749;28;19913;-44
2022/10/08 08:57:47;;;;;;;11.38;4.25;;;;;;;;;;10408689;28;20049;-45
2022/10/08 09:02:53;;;;;;;9.30;3.83;;;;;;;;;;10409071;28;20025;-44
2022/10/08 09:08:00;;;;;;;10.65;3.58;;;;;;;;;;10409407;28;20037;-44
2022/10/08 09:13:01;;;;;;;8.93;3.95;;;;;;;;;;10408252;28;20056;-47
2022/10/08 09:18:02;;;;;;;9.88;4.00;;;;;;;;;;10408847;28;20048;-46
2022/10/08 09:23:07;;;;;;;11.63;3.33;;;;;;;;;;10409058;28;20108;-46
2022/10/08 09:28:08;;;;;;;7.13;3.63;;;;;;;;;;10415760;28;20021;-47
2022/10/08 09:33:11;;;;;;;9.23;3.83;;;;;;;;;;10417352;28;20033;-49
2022/10/08 09:38:19;;;;;;;10.25;3.75;;;;;;;;;;10417277;28;20029;-45
2022/10/08 09:43:20;;;;;;;9.68;3.58;;;;;;;;;;10416806;28;20029;-44
2022/10/08 09:48:27;;;;;;;8.47;4.30;;;;;;;;;;10417075;28;20017;-46
2022/10/08 09:53:31;;;;;;;12.32;3.63;;;;;;;;;;10416597;28;20061;-44
2022/10/08 09:58:32;;;;;;;12.32;3.80;;;;;;;;;;10416170;28;20168;-52
2022/10/08 10:03:33;;;;;;;10.45;3.75;;;;;;;;;;10415811;28;20529;-47
2022/10/08 10:08:42;;;;;;;9.75;3.58;;;;;;;;;;10415697;28;20025;-45
2022/10/08 10:13:43;;;;;;;9.27;3.88;;;;;;;;;;10415195;28;20072;-49
2022/10/08 10:18:46;;;;;;;10.43;3.30;;;;;;;;;;10415020;28;20536;-48
2022/10/08 10:24:05;;;;;;;6.43;3.13;;;;;;;;;;10414931;28;20025;-45
2022/10/08 10:29:17;;;;;;;18.67;3.58;;;;;;;;;;10414742;28;20032;-49
2022/10/08 10:34:23;;;;;;;10.68;4.25;;;;;;;;;;10415101;28;20026;-45
2022/10/08 10:39:42;;;;;;;7.50;4.28;;;;;;;;;;10413599;28;20025;-47
2022/10/08 10:44:43;;;;;;;12.23;5.18;;;;;;;;;;10413702;28;20096;-47
2022/10/08 10:49:43;;;;;;;8.18;4.15;;;;;;;;;;10414294;28;20038;-47
2022/10/08 10:54:56;;;;;;;9.87;4.60;;;;;;;;;;10413773;28;20025;-45
2022/10/08 11:00:05;;;;;;;9.13;4.22;;;;;;;;;;10413593;28;20033;-44
2022/10/08 11:05:14;;;;;;;8.43;4.97;;;;;;;;;;10413512;28;20069;-47
2022/10/08 11:10:33;;;;;;;11.80;5.22;;;;;;;;;;10412548;28;20037;-44
2022/10/08 11:15:34;;;;;;;9.85;3.97;;;;;;;;;;10411451;28;20695;-48
2022/10/08 11:20:42;;;;;;;22.73;3.90;;;;;;;;;;10412378;28;20104;-45
2022/10/08 11:25:51;;;;;;;13.73;4.35;;;;;;;;;;10411065;28;20033;-48
2022/10/08 11:31:01;;;;;;;10.75;3.40;;;;;;;;;;10411329;28;20549;-45
2022/10/08 11:36:01;;;;;;;12.68;3.33;;;;;;;;;;10411996;28;20120;-44
2022/10/08 11:41:14;;;;;;;9.60;3.55;;;;;;;;;;10411468;28;20021;-44
2022/10/08 11:46:21;;;;;;;12.50;3.97;;;;;;;;;;10411008;28;20026;-44
2022/10/08 11:51:21;;;;;;;12.73;4.97;;;;;;;;;;10410302;28;20026;-43
2022/10/08 11:56:22;;;;;;;10.38;4.97;;;;;;;;;;10410735;28;20029;-44
2022/10/08 12:01:22;;;;;;;13.10;4.97;;;;;;;;;;10411580;28;20453;-46
2022/10/08 12:06:25;;;;;;;9.00;4.22;;;;;;;;;;10410421;28;20474;-48
2022/10/08 12:11:28;;;;;;;8.32;4.75;;;;;;;;;;10410198;28;20040;-46
2022/10/08 12:16:47;;;;;;;10.05;5.63;;;;;;;;;;10409634;28;20046;-49
2022/10/08 12:21:48;;;;;;;10.95;4.40;;;;;;;;;;10410008;28;20033;-51
2022/10/08 12:27:07;;;;;;;13.48;5.35;;;;;;;;;;10409325;28;20029;-46
2022/10/08 12:32:08;;;;;;;9.65;4.50;;;;;;;;;;10410162;28;20132;-51
2022/10/08 12:37:27;;;;;;;15.60;5.80;;;;;;;;;;10409681;28;20022;-57
2022/10/08 12:42:31;;;;;;;7.25;4.53;;;;;;;;;;10408698;28;20038;-44
2022/10/08 12:47:34;;;;;;;6.88;4.32;;;;;;;;;;10408348;28;20465;-46
2022/10/08 12:52:35;;;;;;;13.98;4.82;;;;;;;;;;10407868;28;20096;-44
2022/10/08 12:57:37;;;;;;;7.45;5.15;;;;;;;;;;10408262;28;20029;-49
2022/10/08 13:02:41;;;;;;;13.52;4.75;;;;;;;;;;10407556;28;20030;-46
2022/10/08 13:07:42;;;;;;;17.90;5.35;;;;;;;;;;10408062;28;20603;-48
2022/10/08 13:12:42;;;;;;;11.43;5.07;;;;;;;;;;10407563;28;20124;-47
2022/10/08 13:17:42;;;;;;;16.08;5.55;;;;;;;;;;10407002;28;20091;-46
2022/10/08 13:22:43;;;;;;;10.15;5.03;;;;;;;;;;10405419;28;20025;-46
2022/10/08 13:27:43;;;;;;;11.90;4.50;;;;;;;;;;10407031;28;20473;-47
2022/10/08 13:32:44;;;;;;;9.23;4.10;;;;;;;;;;10408071;28;20551;-45
2022/10/08 13:37:50;;;;;;;18.55;5.22;;;;;;;;;;10408466;28;20507;-50
2022/10/08 13:42:52;;;;;;;21.52;5.13;;;;;;;;;;10408743;28;20057;-49
2022/10/08 13:47:53;;;;;;;10.57;4.50;;;;;;;;;;10408989;28;20037;-49
2022/10/08 13:52:56;;;;;;;18.35;4.50;;;;;;;;;;10407740;28;20037;-47
2022/10/08 13:57:58;;;;;;;5.93;3.90;;;;;;;;;;10408184;28;20096;-47
2022/10/08 14:02:59;;;;;;;8.70;4.75;;;;;;;;;;10408370;28;20069;-46
2022/10/08 14:08:00;;;;;;;13.15;5.00;;;;;;;;;;10407735;28;20045;-46
2022/10/08 14:13:00;;;;;;;12.40;4.70;;;;;;;;;;10411752;28;20049;-47
2022/10/08 14:18:01;;;;;;;7.27;4.10;;;;;;;;;;10415707;28;20045;-48
2022/10/08 14:23:01;;;;;;;7.40;4.28;;;;;;;;;;10414898;28;20381;-48
2022/10/08 14:28:01;;;;;;;9.93;4.10;;;;;;;;;;10414062;28;20029;-54
2022/10/08 14:33:01;;;;;;;8.47;4.20;;;;;;;;;;10414053;28;20370;-48
2022/10/08 14:38:02;;;;;;;10.52;3.58;;;;;;;;;;10414121;28;20387;-49
2022/10/08 14:43:02;;;;;;;8.95;3.72;;;;;;;;;;10414338;28;20033;-50
2022/10/08 14:48:02;;;;;;;9.27;3.97;;;;;;;;;;10414084;28;20104;-50
2022/10/08 14:53:03;;;;;;;20.73;4.17;;;;;;;;;;10414087;28;20025;-48
2022/10/08 14:58:03;;;;;;;7.15;3.78;;;;;;;;;;10413610;28;20025;-46
2022/10/08 15:03:03;;;;;;;8.27;3.80;;;;;;;;;;10413563;28;20044;-47
2022/10/08 15:08:03;;;;;;;7.55;3.90;;;;;;;;;;10413402;28;20392;-47
2022/10/08 15:13:04;;;;;;;8.27;3.92;;;;;;;;;;10413217;28;20056;-47
2022/10/08 15:18:04;;;;;;;7.07;3.38;;;;;;;;;;10412935;28;20057;-47
2022/10/08 15:23:06;;;;;;;6.75;3.38;;;;;;;;;;10412651;28;20025;-47
2022/10/08 15:28:06;;;;;;;5.43;3.35;;;;;;;;;;10412619;28;20026;-50
2022/10/08 15:33:06;;;;;;;14.60;3.65;;;;;;;;;;10412785;28;20039;-48
2022/10/08 15:38:06;;;;;;;6.80;3.33;;;;;;;;;;10411813;28;20091;-47
2022/10/08 15:43:07;;;;;;;21.98;4.13;;;;;;;;;;10412331;28;20029;-46
2022/10/08 15:48:10;;;;;;;7.88;2.83;;;;;;;;;;10412217;28;20037;-47
2022/10/08 15:53:10;;;;;;;4.55;2.78;;;;;;;;;;10411868;28;20025;-46
2022/10/08 15:58:11;;;;;;;8.20;3.30;;;;;;;;;;10411810;28;20461;-46
2022/10/08 16:03:11;;;;;;;10.98;3.25;;;;;;;;;;10411329;28;20124;-46
2022/10/08 16:08:11;;;;;;;5.20;3.33;;;;;;;;;;10411419;28;20041;-48
2022/10/08 16:13:11;;;;;;;12.15;3.17;;;;;;;;;;10410376;28;20492;-48
2022/10/08 16:18:12;;;;;;;5.18;2.72;;;;;;;;;;10410388;28;20033;-48
2022/10/08 16:23:12;;;;;;;4.28;3.25;;;;;;;;;;10410799;28;20104;-46
2022/10/08 16:28:13;;;;;;;5.20;2.90;;;;;;;;;;10410665;28;20029;-46
2022/10/08 16:33:13;;;;;;;5.55;2.63;;;;;;;;;;10409203;28;20029;-46
2022/10/08 16:38:13;;;;;;;7.45;3.05;;;;;;;;;;10409629;28;20026;-46
2022/10/08 16:43:14;;;;;;;4.03;3.00;;;;;;;;;;10410113;28;20083;-47
2022/10/08 16:48:14;;;;;;;3.90;2.95;;;;;;;;;;10409593;28;20436;-47
2022/10/08 16:53:14;;;;;;;3.20;2.47;;;;;;;;;;10409418;28;20384;-47
2022/10/08 16:58:14;;;;;;;4.70;2.70;;;;;;;;;;10409553;28;20492;-48
2022/10/08 17:03:15;;;;;;;5.22;2.80;;;;;;;;;;10408876;28;20106;-48
2022/10/08 17:08:15;;;;;;;4.55;2.60;;;;;;;;;;10408875;28;20030;-50
2022/10/08 17:13:15;;;;;;;8.02;3.10;;;;;;;;;;10409068;28;20049;-46
2022/10/08 17:18:15;;;;;;;5.53;2.97;;;;;;;;;;10409381;28;20030;-46
2022/10/08 17:23:16;;;;;;;4.55;2.80;;;;;;;;;;10408740;28;20412;-46
2022/10/08 17:28:16;;;;;;;3.97;2.60;;;;;;;;;;10408844;28;20052;-46
2022/10/08 17:33:16;;;;;;;4.93;2.60;;;;;;;;;;10408248;28;20064;-47
2022/10/08 17:38:16;;;;;;;5.30;2.88;;;;;;;;;;10408319;28;20029;-48
2022/10/08 17:43:17;;;;;;;11.30;3.58;;;;;;;;;;10408076;28;20025;-47
2022/10/08 17:48:17;;;;;;;6.13;3.00;;;;;;;;;;10413834;28;20026;-46
2022/10/08 17:53:17;;;;;;;5.53;2.88;;;;;;;;;;10416106;28;20083;-51
2022/10/08 17:58:18;;;;;;;6.18;2.75;;;;;;;;;;10416113;28;20040;-49
2022/10/08 18:03:18;;;;;;;5.50;2.80;;;;;;;;;;10415828;28;20144;-49
2022/10/08 18:08:18;;;;;;;6.18;2.85;;;;;;;;;;10415798;28;20366;-46
2022/10/08 18:13:18;;;;;;;5.10;3.10;;;;;;;;;;10415147;28;20042;-47
2022/10/08 18:18:19;;;;;;;6.20;2.77;;;;;;;;;;10415879;28;20021;-48
2022/10/08 18:23:19;;;;;;;7.70;3.20;;;;;;;;;;10415069;28;20039;-49
2022/10/08 18:28:20;;;;;;;4.90;2.70;;;;;;;;;;10414975;28;20188;-49
2022/10/08 18:33:21;;;;;;;3.72;2.35;;;;;;;;;;10415167;28;20064;-50
2022/10/08 18:38:21;;;;;;;7.13;3.05;;;;;;;;;;10414652;28;20485;-48
2022/10/08 18:43:21;;;;;;;5.80;2.72;;;;;;;;;;10414807;28;20037;-45
2022/10/08 18:48:21;;;;;;;8.93;3.10;;;;;;;;;;10414079;28;20068;-48
2022/10/08 18:53:22;;;;;;;7.90;3.03;;;;;;;;;;10414306;28;20029;-48
2022/10/08 18:58:22;;;;;;;4.45;2.72;;;;;;;;;;10413397;28;20385;-48
2022/10/08 19:03:23;;;;;;;6.13;3.38;;;;;;;;;;10414031;28;20461;-50
2022/10/08 19:08:23;;;;;;;7.50;3.45;;;;;;;;;;10413203;28;20037;-47
2022/10/08 19:13:23;;;;;;;9.40;3.00;;;;;;;;;;10413086;28;20136;-49
2022/10/08 19:18:24;;;;;;;5.30;2.83;;;;;;;;;;10413601;28;20165;-50
2022/10/08 19:23:24;;;;;;;11.10;2.90;;;;;;;;;;10412710;28;20077;-46
2022/10/08 19:28:24;;;;;;;10.82;3.53;;;;;;;;;;10412750;28;20033;-47
2022/10/08 19:33:25;;;;;;;7.25;2.70;;;;;;;;;;10412311;28;20496;-47
2022/10/08 19:38:25;;;;;;;8.52;3.17;;;;;;;;;;10412217;28;20052;-46
2022/10/08 19:43:25;;;;;;;6.95;3.22;;;;;;;;;;10412017;28;20163;-48
2022/10/08 19:48:25;;;;;;;5.22;2.47;;;;;;;;;;10411879;28;20029;-50
2022/10/08 19:53:26;;;;;;;7.65;2.45;;;;;;;;;;10411519;28;20025;-46
2022/10/08 19:58:26;;;;;;;4.43;2.70;;;;;;;;;;10411617;28;20021;-49
2022/10/08 20:03:26;;;;;;;8.47;2.73;;;;;;;;;;10411665;28;20029;-46
2022/10/08 20:08:27;;;;;;;7.70;2.83;;;;;;;;;;10410744;28;20055;-46
2022/10/08 20:13:27;;;;;;;8.05;3.38;;;;;;;;;;10410907;28;20192;-47
2022/10/08 20:18:27;;;;;;;4.60;2.50;;;;;;;;;;10410763;28;20189;-47
2022/10/08 20:23:28;;;;;;;6.60;3.03;;;;;;;;;;10410471;28;20083;-45
2022/10/08 20:28:28;;;;;;;6.50;2.90;;;;;;;;;;10411040;28;20026;-48
2022/10/08 20:33:28;;;;;;;4.75;2.80;;;;;;;;;;10410044;28;20033;-45
2022/10/08 20:38:29;;;;;;;6.50;2.90;;;;;;;;;;10410048;28;20025;-47
2022/10/08 20:43:30;;;;;;;4.13;2.60;;;;;;;;;;10410090;28;20029;-52
2022/10/08 20:48:31;;;;;;;10.48;3.47;;;;;;;;;;10410249;28;20033;-48
2022/10/08 20:53:32;;;;;;;3.55;2.92;;;;;;;;;;10409257;28;20374;-45
2022/10/08 20:58:33;;;;;;;4.88;2.83;;;;;;;;;;10408906;28;20037;-48
2022/10/08 21:03:35;;;;;;;4.68;2.50;;;;;;;;;;10409138;28;20216;-46
2022/10/08 21:08:40;;;;;;;5.45;2.60;;;;;;;;;;10409443;28;20037;-47
2022/10/08 21:13:41;;;;;;;15.48;3.35;;;;;;;;;;10408520;28;20041;-45
2022/10/08 21:18:42;;;;;;;5.82;2.50;;;;;;;;;;10409237;28;20025;-47
2022/10/08 21:23:42;;;;;;;6.72;2.53;;;;;;;;;;10408498;28;20075;-46
2022/10/08 21:28:44;;;;;;;6.10;2.47;;;;;;;;;;10408701;28;20040;-48
2022/10/08 21:33:45;;;;;;;7.50;2.75;;;;;;;;;;10408846;28;20037;-48
2022/10/08 21:38:46;;;;;;;5.75;2.60;;;;;;;;;;10408313;28;20072;-45
2022/10/08 21:43:47;;;;;;;7.95;2.90;;;;;;;;;;10408296;28;20151;-48
2022/10/08 21:48:52;;;;;;;6.32;2.80;;;;;;;;;;10408232;28;20040;-46
2022/10/08 21:53:54;;;;;;;5.78;2.33;;;;;;;;;;10407845;28;20057;-46
2022/10/08 21:58:56;;;;;;;10.60;3.15;;;;;;;;;;10408482;28;20145;-45
2022/10/08 22:03:58;;;;;;;5.32;2.63;;;;;;;;;;10407787;28;20469;-46
2022/10/08 22:08:58;;;;;;;5.47;2.85;;;;;;;;;;10407786;28;20078;-46
2022/10/08 22:13:59;;;;;;;6.72;2.63;;;;;;;;;;10407455;28;20501;-46
2022/10/08 22:18:59;;;;;;;8.75;2.60;;;;;;;;;;10408150;28;20033;-46
2022/10/08 22:24:00;;;;;;;3.63;2.70;;;;;;;;;;10407480;28;20476;-45
2022/10/08 22:29:01;;;;;;;6.30;2.90;;;;;;;;;;10407332;28;20045;-45
2022/10/08 22:34:01;;;;;;;9.55;2.25;;;;;;;;;;10411380;28;20113;-47
2022/10/08 22:39:01;;;;;;;4.60;2.38;;;;;;;;;;10415107;28;20032;-47
2022/10/08 22:44:02;;;;;;;2.63;2.40;;;;;;;;;;10414357;28;20040;-45
2022/10/08 22:49:07;;;;;;;12.35;2.90;;;;;;;;;;10414644;28;20455;-46
2022/10/08 22:54:08;;;;;;;5.45;3.13;;;;;;;;;;10413797;28;20516;-45
2022/10/08 22:59:09;;;;;;;7.85;2.22;;;;;;;;;;10414114;28;20516;-46
2022/10/08 23:04:09;;;;;;;4.78;2.85;;;;;;;;;;10413561;28;20102;-46
2022/10/08 23:09:10;;;;;;;5.55;2.50;;;;;;;;;;10413690;28;20503;-46
2022/10/08 23:14:11;;;;;;;6.05;2.78;;;;;;;;;;10412372;28;20041;-46
2022/10/08 23:19:11;;;;;;;3.60;2.40;;;;;;;;;;10413300;28;20030;-49
2022/10/08 23:24:11;;;;;;;3.33;2.50;;;;;;;;;;10412640;28;20041;-46
2022/10/08 23:29:12;;;;;;;3.50;2.50;;;;;;;;;;10413043;28;20162;-47
2022/10/08 23:34:12;;;;;;;2.97;2.10;;;;;;;;;;10412834;28;20115;-48
2022/10/08 23:39:14;;;;;;;10.48;2.55;;;;;;;;;;10412100;28;20821;-46
2022/10/08 23:44:14;;;;;;;3.88;2.10;;;;;;;;;;10410610;28;20381;-50
2022/10/08 23:49:14;;;;;;;4.27;2.37;;;;;;;;;;10412225;28;20029;-48
2022/10/08 23:54:14;;;;;;;6.67;2.53;;;;;;;;;;10411649;28;20299;-47
2022/10/08 23:59:15;;;;;;;6.43;2.70;;;;;;;;;;10411737;28;20028;-48
